• Join FlightAware (Why Join?)
  • Login
  • US Flag 
 
01:12AM EST


 

Airport Tracker/Info


-or-


 

Live Flight TrackerFlight Track Log ✈ SWA625 ✈ 04-May-2013 ✈ KLAS - KHOU

Flight Track Log - Related Links

Times and Time Zones

All times are in EDT time to prevent confusion due to time zone crossing. See the SWA625 flight status page for this flight to view local times or setup timezone preferences in your user account.

Time Position Orientation Groundspeed Altitude Reporting Facility
EDT Latitude Longitude Course Direction KTS MPH feet Rate Location/Type
09:59AM 36.0753 -115.1844 255° West 173 199 3,100  Level Los Angeles Center
10:00AM 36.0592 -115.2589 255° West 246 283 5,400 2,520 Climbing Los Angeles Center
10:00AM 36.0244 -115.2750 201° Southwest 257 296 7,200 3,000 Climbing Los Angeles Center
10:01AM 35.9947 -115.2906 203° Southwest 250 288 8,400 2,520 Climbing Los Angeles Center
10:01AM 35.9556 -115.2872 176° South 260 299 9,800 1,860 Climbing Los Angeles Center
10:02AM 35.9375 -115.1958 104° East 284 327 11,500 1,980 Climbing Los Angeles Center
10:03AM 35.9372 -115.0800 90° East 327 376 13,900 2,280 Climbing Los Angeles Center
10:04AM 35.9361 -114.9572 91° East 349 402 16,200 2,220 Climbing Los Angeles Center
10:06AM 35.9347 -114.8294 91° East 366 421 18,500 1,800 Climbing Los Angeles Center
10:07AM 35.9333 -114.6928 91° East 387 445 20,000 1,560 Climbing Los Angeles Center
10:08AM 35.8975 -114.5569 108° East 423 487 21,800 1,920 Climbing Los Angeles Center
10:09AM 35.8303 -114.4039 118° Southeast 423 487 24,000 1,800 Climbing Los Angeles Center
10:10AM 35.7717 -114.2731 119° Southeast 431 496 25,500 1,380 Climbing Los Angeles Center
10:11AM 35.7128 -114.1400 119° Southeast 439 505 26,900 1,260 Climbing Los Angeles Center
10:12AM 35.6617 -114.0228 118° Southeast 454 522 28,100 1,200 Climbing Los Angeles Center
10:13AM 35.5875 -113.8558 119° Southeast 463 533 29,400 1,320 Climbing Los Angeles Center
10:14AM 35.5239 -113.7156 119° Southeast 470 541 30,900 1,380 Climbing Los Angeles Center
10:15AM 35.4628 -113.5786 119° Southeast 462 532 32,300 1,140 Climbing Los Angeles Center
10:16AM 35.4014 -113.4425 119° Southeast 460 529 33,300 1,020 Climbing Los Angeles Center
10:17AM 35.3383 -113.3056 119° Southeast 464 534 34,500 780 Climbing Los Angeles Center
10:18AM 35.2797 -113.1686 118° Southeast 459 528 35,000 240 Climbing Los Angeles Center
10:19AM 35.2175 -112.9956 114° Southeast 463 533 35,000  Level Los Angeles Center
10:20AM 35.1664 -112.8636 115° Southeast 464 534 35,000  Level Albuquerque Center
10:21AM 35.1125 -112.7219 115° Southeast 465 535 35,000  Level Albuquerque Center
10:22AM 35.0581 -112.5794 115° Southeast 467 537 35,000  Level Albuquerque Center
10:23AM 35.0025 -112.4378 116° Southeast 467 537 35,000  Level Albuquerque Center
10:24AM 34.9481 -112.2975 115° Southeast 463 533 35,000  Level Albuquerque Center
10:25AM 34.8836 -112.1283 115° Southeast 462 532 35,000  Level Albuquerque Center
10:26AM 34.8292 -111.9867 115° Southeast 462 532 35,000  Level Albuquerque Center
10:27AM 34.7739 -111.8475 116° Southeast 462 532 35,000  Level Albuquerque Center
10:28AM 34.7169 -111.7056 116° Southeast 462 532 35,000  Level Albuquerque Center
10:29AM 34.6600 -111.5639 116° Southeast 463 533 35,000  Level Albuquerque Center
10:30AM 34.6050 -111.4214 115° Southeast 464 534 35,000  Level Albuquerque Center
10:31AM 34.5478 -111.2814 116° Southeast 463 533 35,000  Level Albuquerque Center
10:32AM 34.4931 -111.1400 115° Southeast 462 532 35,000  Level Albuquerque Center
10:33AM 34.4375 -111.0000 116° Southeast 461 531 35,000  Level Albuquerque Center
10:34AM 34.3794 -110.8617 117° Southeast 460 529 35,000  Level Albuquerque Center
10:35AM 34.3289 -110.6867 109° East 460 529 35,000  Level Albuquerque Center
10:36AM 34.2939 -110.5372 106° East 460 529 35,000  Level Albuquerque Center
10:37AM 34.2575 -110.3881 106° East 462 532 35,000  Level Albuquerque Center
10:38AM 34.2219 -110.2389 106° East 465 535 35,000  Level Albuquerque Center
10:39AM 34.1817 -110.0725 106° East 461 531 35,000  Level Albuquerque Center
10:40AM 34.1458 -109.9300 107° East 462 532 35,000  Level Albuquerque Center
10:41AM 34.1061 -109.7664 106° East 459 528 35,000  Level Albuquerque Center
10:42AM 34.0714 -109.6242 106° East 459 528 35,000  Level Albuquerque Center
10:43AM 34.0353 -109.4844 107° East 458 527 35,000  Level Albuquerque Center
10:44AM 33.9972 -109.3294 106° East 458 527 35,000  Level Albuquerque Center
10:45AM 33.9594 -109.1825 107° East 460 529 35,000  Level Albuquerque Center
10:46AM 33.9231 -109.0369 107° East 458 527 35,000  Level Albuquerque Center
10:47AM 33.8856 -108.8922 107° East 456 525 35,000  Level Albuquerque Center
10:49AM 33.8408 -108.7189 107° East 455 524 35,000  Level Albuquerque Center
10:50AM 33.8033 -108.5722 107° East 457 526 35,000  Level Albuquerque Center
10:51AM 33.7642 -108.4250 108° East 462 532 35,000  Level Albuquerque Center
10:52AM 33.7261 -108.2792 107° East 461 531 35,000  Level Albuquerque Center
10:53AM 33.6883 -108.1381 108° East 457 526 35,000  Level Albuquerque Center
10:54AM 33.6500 -107.9928 108° East 456 525 35,000  Level Albuquerque Center
10:55AM 33.6031 -107.8181 108° East 457 526 35,000  Level Albuquerque Center
10:56AM 33.5633 -107.6761 109° East 455 524 35,000  Level Albuquerque Center
10:57AM 33.5258 -107.5258 107° East 459 528 35,000  Level Albuquerque Center
10:58AM 33.4864 -107.3789 108° East 463 533 35,000  Level Albuquerque Center
10:59AM 33.4469 -107.2328 108° East 461 531 35,000  Level Albuquerque Center
11:00AM 33.4058 -107.0889 109° East 458 527 35,000  Level Albuquerque Center
11:01AM 33.3669 -106.9436 108° East 457 526 35,000  Level Albuquerque Center
11:02AM 33.3269 -106.7969 108° East 460 529 35,000  Level Albuquerque Center
11:03AM 33.2781 -106.6219 108° East 462 532 35,000  Level Albuquerque Center
11:04AM 33.2367 -106.4764 109° East 461 531 35,000  Level Albuquerque Center
11:05AM 33.1964 -106.3292 108° East 464 534 35,000  Level Albuquerque Center
11:06AM 33.1553 -106.1836 109° East 463 533 35,000  Level Albuquerque Center
11:07AM 33.1139 -106.0378 109° East 463 533 35,000  Level Albuquerque Center
11:08AM 33.0728 -105.8922 109° East 462 532 35,000  Level Albuquerque Center
11:09AM 33.0314 -105.7464 109° East 464 534 35,000  Level Albuquerque Center
11:10AM 32.9794 -105.5700 109° East 467 537 35,000  Level Albuquerque Center
11:11AM 32.9428 -105.4389 108° East 461 531 35,000  Level Albuquerque Center
11:12AM 32.8939 -105.2708 109° East 463 533 35,000  Level Albuquerque Center
11:13AM 32.8503 -105.1242 109° East 470 541 35,000  Level Albuquerque Center
11:14AM 32.8053 -104.9700 109° East 464 534 35,000 360 Level Albuquerque Center
11:15AM 32.7639 -104.8286 109° East 459 528 35,800 780 Climbing Albuquerque Center
11:16AM 32.7222 -104.6867 109° East 457 526 36,700 540 Climbing Albuquerque Center
11:17AM 32.6775 -104.5331 109° East 459 528 37,000 120 Climbing Albuquerque Center
11:18AM 32.6342 -104.3917 110° East 460 529 37,000  Level Albuquerque Center
11:19AM 32.5892 -104.2375 109° East 461 531 37,000  Level Albuquerque Center
11:20AM 32.5467 -104.0950 109° East 462 532 37,000  Level Albuquerque Center
11:21AM 32.5044 -103.9553 110° East 457 526 37,000  Level Albuquerque Center
11:23AM 32.4606 -103.8100 110° East 464 534 37,000  Level Albuquerque Center
11:24AM 32.4161 -103.6650 110° East 470 541 37,000  Level Albuquerque Center
11:25AM 32.3703 -103.5206 111° Southeast 471 542 37,000  Level Albuquerque Center
11:26AM 32.3161 -103.3461 110° East 473 544 37,000  Level Albuquerque Center
11:27AM 32.2706 -103.2000 110° East 476 548 37,000  Level Albuquerque Center
11:28AM 32.2244 -103.0539 110° East 477 549 37,000  Level Albuquerque Center
11:29AM 32.1792 -102.9075 110° East 478 550 37,000  Level Albuquerque Center
11:29AM 32.1472 -102.8133 112° Southeast 474 545 37,000 -60 Level Fort Worth Center
11:30AM 32.1014 -102.6636 110° East 479 551 36,900  Descending Fort Worth Center
11:31AM 32.0572 -102.5189 110° East 479 551 37,000  Climbing Fort Worth Center
11:32AM 32.0089 -102.3717 111° Southeast 474 545 37,000  Level Fort Worth Center
11:33AM 31.9647 -102.2225 109° East 479 551 37,000  Level Fort Worth Center
11:34AM 31.9100 -102.0631 112° Southeast 479 551 37,000  Level Fort Worth Center
11:35AM 31.8614 -101.9114 111° Southeast 485 558 37,000  Level Fort Worth Center
11:36AM 31.8144 -101.7600 110° East 485 558 37,000  Level Fort Worth Center
11:37AM 31.7633 -101.6108 112° Southeast 492 566 37,000  Level Fort Worth Center
11:38AM 31.7161 -101.4597 110° East 492 566 37,000  Level Fort Worth Center
11:39AM 31.6625 -101.3061 112° Southeast 492 566 37,000  Level Fort Worth Center
11:40AM 31.6147 -101.1578 111° Southeast 497 572 37,000 -60 Level Fort Worth Center
11:41AM 31.5647 -101.0094 112° Southeast 497 572 36,900  Descending Fort Worth Center
11:42AM 31.5167 -100.8639 111° Southeast 487 560 37,000  Climbing Fort Worth Center
11:43AM 31.4664 -100.7183 112° Southeast 481 554 37,000  Level Fort Worth Center
11:44AM 31.4178 -100.5778 112° Southeast 476 548 37,000 -60 Level Fort Worth Center
11:47AM 31.3086 -100.2547 112° Southeast 486 559 36,900  Descending Houston Center
11:48AM 31.2481 -100.0781 112° Southeast 486 559 37,000  Climbing Houston Center
11:49AM 31.1972 -99.9306 112° Southeast 488 562 37,000  Level Houston Center
11:50AM 31.1456 -99.7808 112° Southeast 493 567 37,000  Level Houston Center
11:51AM 31.0942 -99.6314 112° Southeast 496 571 37,000  Level Houston Center
11:52AM 31.0569 -99.4758 106° East 500 575 37,000  Level Houston Center
11:53AM 31.0311 -99.3161 101° East 501 577 37,000  Level Houston Center
11:54AM 31.0056 -99.1556 100° East 494 568 37,000  Level Houston Center
11:55AM 30.9761 -98.9722 101° East 490 564 37,000  Level Houston Center
11:56AM 30.9519 -98.8147 100° East 489 563 37,000  Level Houston Center
11:57AM 30.9258 -98.6567 101° East 494 568 37,000  Level Houston Center
11:58AM 30.8989 -98.4964 101° East 499 574 37,000  Level Houston Center
11:59AM 30.8739 -98.3372 100° East 498 573 37,000  Level Houston Center
12:00PM 30.8461 -98.1764 101° East 501 577 37,000  Level Houston Center
12:01PM 30.8183 -98.0144 101° East 506 582 37,000  Level Houston Center
12:02PM 30.7911 -97.8533 101° East 505 581 37,000 -360 Level Houston Center
12:03PM 30.7583 -97.6642 101° East 508 585 36,300 -1,020 Descending Houston Center
12:04PM 30.7306 -97.5031 101° East 507 583 34,900 -2,160 Descending Houston Center
12:05PM 30.6931 -97.3444 105° East 513 590 31,900 -2,940 Descending Houston Center
12:06PM 30.6317 -97.1969 116° Southeast 511 588 28,900 -3,000 Descending Houston Center
12:07PM 30.5689 -97.0492 116° Southeast 509 586 25,700 -2,880 Descending Houston Center
12:08PM 30.4986 -96.8814 116° Southeast 495 570 23,000 -2,460 Descending Houston Center
12:09PM 30.4406 -96.7461 116° Southeast 470 541 20,700 -2,160 Descending Houston Center
12:10PM 30.3839 -96.6169 117° Southeast 450 518 18,500 -2,160 Descending Houston Center
12:12PM 30.3306 -96.4917 116° Southeast 433 498 16,200 -2,400 Descending Houston Center
12:12PM 30.3047 -96.4364 118° Southeast 424 488 15,100 -2,460 Descending Houston Center
12:13PM 30.2714 -96.3628 118° Southeast 414 476 13,700 -2,220 Descending Houston Center
12:14PM 30.2217 -96.2450 116° Southeast 397 457 11,500 -1,440 Descending Houston Center
12:14PM 30.1442 -96.1739 142° Southeast 381 438 11,000 -360 Descending Houston Center
12:15PM 30.0497 -96.1244 156° South 376 433 10,900 -540 Descending Houston Center
12:17PM 29.9531 -96.0725 155° Southeast 359 413 10,000 -960 Descending Houston Center
12:18PM 29.8650 -96.0247 155° Southeast 327 376 9,000 -1,080 Descending Houston Center
12:19PM 29.7881 -95.9856 156° South 299 344 7,900 -1,020 Descending Houston Center
12:20PM 29.7203 -95.9306 145° Southeast 285 328 7,000 -480 Descending Houston Center
12:21PM 29.6589 -95.8753 142° Southeast 281 323 7,000 -540 Level Houston Center
12:22PM 29.5928 -95.8156 142° Southeast 296 341 6,000 -480 Descending Houston Center
12:23PM 29.5869 -95.7275 94° East 252 290 6,000 -120 Level Houston Center
12:24PM 29.6211 -95.6633 59° Northeast 234 269 5,800 -780 Descending Houston Center
12:25PM 29.6481 -95.5881 68° East 256 295 4,500 -1,080 Descending Houston Center
12:26PM 29.6717 -95.5108 71° East 248 285 3,400 -1,080 Descending Houston Center
12:27PM 29.6933 -95.4383 71° East 238 274 2,400 -780 Descending Houston Center
12:28PM 29.7058 -95.3697 78° East 206 237 2,000 -600 Descending Houston Center
12:29PM 29.6789 -95.3186 121° Southeast 183 211 1,100 -840 Descending Houston Center
12:30PM 29.6544 -95.2917 136° Southeast 140 161 300 -1,020 Descending Houston Center
12:32PM 29.6454 -95.2789 115° Southeast  Level Estimated